Time,TemperatureF,DewpointF,PressureIn,WindDirection,WindDirectionDegrees,WindSpeedMPH,WindSpeedGustMPH,Humidity,HourlyPrecipIn,Conditions,Clouds,dailyrainin,SoftwareType,DateUTC
2013-03-08 00:02:00,49.8,45.8,30.20,WSW,247,1.0,1.0,86,0.00,FEW,FEW,0.00,WeatherDisplay:10.37,2013-03-08 05:02:00,
2013-03-08 00:06:00,49.8,45.8,30.20,SW,233,1.0,1.0,86,0.00,FEW,FEW,0.00,WeatherDisplay:10.37,2013-03-08 05:06:00,
2013-03-08 00:11:00,50.0,45.7,30.20,SW,225,1.0,2.0,85,0.00,FEW,FEW,0.00,WeatherDisplay:10.37,2013-03-08 05:11:00,
2013-03-08 00:16:00,50.0,45.7,30.20,SW,225,1.0,1.0,85,0.00,FEW,FEW,0.00,WeatherDisplay:10.37,2013-03-08 05:16:00,
2013-03-08 00:21:00,49.7,45.4,30.20,SW,225,1.0,1.0,85,0.00,FEW,FEW,0.00,WeatherDisplay:10.37,2013-03-08 05:21:00,
2013-03-08 00:26:00,49.6,45.3,30.20,SW,225,1.0,1.0,85,0.00,FEW,FEW,0.00,WeatherDisplay:10.37,2013-03-08 05:26:00,
2013-03-08 00:36:00,49.4,45.1,30.20,WSW,246,1.0,2.0,85,0.00,FEW,FEW,0.00,WeatherDisplay:10.37,2013-03-08 05:36:00,
2013-03-08 00:41:00,49.3,45.0,30.20,WSW,246,1.0,2.0,85,0.00,FEW,FEW,0.00,WeatherDisplay:10.37,2013-03-08 05:41:00,
2013-03-08 00:46:00,49.1,44.8,30.20,WSW,246,1.0,2.0,85,0.00,FEW,FEW,0.00,WeatherDisplay:10.37,2013-03-08 05:46:00,
2013-03-08 00:51:00,48.9,44.6,30.19,WSW,238,1.0,2.0,85,0.00,FEW,FEW,0.00,WeatherDisplay:10.37,2013-03-08 05:51:00,
2013-03-08 01:01:00,48.6,43.9,30.20,WSW,248,1.0,2.0,84,0.00,FEW,FEW,0.00,WeatherDisplay:10.37,2013-03-08 06:01:00,
2013-03-08 01:06:00,48.4,43.8,30.20,WSW,248,1.0,1.0,84,0.00,CLR,CLR,0.00,WeatherDisplay:10.37,2013-03-08 06:06:00,
2013-03-08 01:11:00,48.2,43.6,30.20,West,262,1.0,2.0,84,0.00,CLR,CLR,0.00,WeatherDisplay:10.37,2013-03-08 06:11:00,
2013-03-08 01:21:00,48.2,43.6,30.20,West,269,1.0,2.0,84,0.00,CLR,CLR,0.00,WeatherDisplay:10.37,2013-03-08 06:21:00,
2013-03-08 01:26:00,48.2,43.3,30.20,West,268,1.0,2.0,83,0.00,CLR,CLR,0.00,WeatherDisplay:10.37,2013-03-08 06:26:00,
2013-03-08 01:31:00,48.2,43.0,30.20,West,266,1.0,2.0,82,0.00,CLR,CLR,0.00,WeatherDisplay:10.37,2013-03-08 06:31:00,
2013-03-08 01:36:00,48.2,43.0,30.20,West,280,2.0,2.0,82,0.00,CLR,CLR,0.00,WeatherDisplay:10.37,2013-03-08 06:36:00,
2013-03-08 01:41:00,48.0,42.5,30.20,WNW,290,2.0,2.0,81,0.00,CLR,CLR,0.00,WeatherDisplay:10.37,2013-03-08 06:41:00,
2013-03-08 01:51:00,48.0,43.1,30.20,WNW,297,1.0,2.0,83,0.00,CLR,CLR,0.00,WeatherDisplay:10.37,2013-03-08 06:51:00,
2013-03-08 01:56:00,47.8,42.9,30.20,WNW,292,1.0,1.0,83,0.00,CLR,CLR,0.00,WeatherDisplay:10.37,2013-03-08 06:56:00,
2013-03-08 02:06:00,47.6,43.0,30.19,WNW,293,0.0,1.0,84,0.00,CLR,CLR,0.00,WeatherDisplay:10.37,2013-03-08 07:06:00,
2013-03-08 02:11:00,47.5,43.2,30.19,NW,306,1.0,1.0,85,0.00,CLR,CLR,0.00,WeatherDisplay:10.37,2013-03-08 07:11:00,
2013-03-08 02:16:00,47.4,42.5,30.19,NW,315,0.0,0.0,83,0.00,CLR,CLR,0.00,WeatherDisplay:10.37,2013-03-08 07:16:00,
2013-03-08 02:21:00,47.1,42.2,30.19,NW,315,0.0,0.0,83,0.00,CLR,CLR,0.00,WeatherDisplay:10.37,2013-03-08 07:21:00,
2013-03-08 02:31:00,47.0,42.7,30.19,NW,315,0.0,0.0,85,0.00,CLR,CLR,0.00,WeatherDisplay:10.37,2013-03-08 07:31:00,
2013-03-08 02:41:00,46.2,41.4,30.18,NW,315,0.0,0.0,83,0.00,CLR,CLR,0.00,WeatherDisplay:10.37,2013-03-08 07:41:00,
2013-03-08 02:51:00,46.6,43.2,30.18,NW,318,0.0,1.0,88,0.00,CLR,CLR,0.00,WeatherDisplay:10.37,2013-03-08 07:51:00,
2013-03-08 03:01:00,46.9,43.0,30.18,NNW,338,0.0,1.0,86,0.00,CLR,CLR,0.00,WeatherDisplay:10.37,2013-03-08 08:01:00,
2013-03-08 03:06:00,46.9,43.0,30.18,NNW,338,1.0,1.0,86,0.00,CLR,CLR,0.00,WeatherDisplay:10.37,2013-03-08 08:06:00,
2013-03-08 03:16:00,47.1,43.1,30.18,NNW,338,1.0,1.0,86,0.00,CLR,CLR,0.00,WeatherDisplay:10.37,2013-03-08 08:16:00,
2013-03-08 03:21:00,46.9,43.3,30.18,NNW,338,1.0,1.0,87,0.00,CLR,CLR,0.00,WeatherDisplay:10.37,2013-03-08 08:21:00,
2013-03-08 03:31:00,46.6,42.9,30.18,NNW,338,0.0,1.0,87,0.00,CLR,CLR,0.00,WeatherDisplay:10.37,2013-03-08 08:31:00,
2013-03-08 03:41:00,46.0,42.1,30.17,NNW,338,0.0,0.0,86,0.00,CLR,CLR,0.00,WeatherDisplay:10.37,2013-03-08 08:41:00,
2013-03-08 03:46:00,45.9,42.2,30.17,NNW,338,0.0,0.0,87,0.00,CLR,CLR,0.00,WeatherDisplay:10.37,2013-03-08 08:46:00,
2013-03-08 03:51:00,45.7,42.0,30.17,NNW,338,0.0,0.0,87,0.00,CLR,CLR,0.00,WeatherDisplay:10.37,2013-03-08 08:51:00,
2013-03-08 04:01:00,45.7,42.3,30.17,NNW,332,1.0,1.0,88,0.00,CLR,CLR,0.00,WeatherDisplay:10.37,2013-03-08 09:01:00,
2013-03-08 04:06:00,45.5,42.2,30.17,NW,321,0.0,1.0,88,0.00,CLR,CLR,0.00,WeatherDisplay:10.37,2013-03-08 09:06:00,
2013-03-08 04:11:00,45.3,42.0,30.17,NW,315,0.0,0.0,88,0.00,CLR,CLR,0.00,WeatherDisplay:10.37,2013-03-08 09:11:00,
2013-03-08 04:16:00,45.1,41.8,30.17,NW,315,0.0,0.0,88,0.00,CLR,CLR,0.00,WeatherDisplay:10.37,2013-03-08 09:16:00,
2013-03-08 04:21:00,45.1,41.8,30.17,NW,312,0.0,1.0,88,0.00,CLR,CLR,0.00,WeatherDisplay:10.37,2013-03-08 09:21:00,
2013-03-08 04:26:00,45.0,41.6,30.16,WNW,301,0.0,1.0,88,0.00,CLR,CLR,0.00,WeatherDisplay:10.37,2013-03-08 09:26:00,
2013-03-08 04:31:00,44.8,41.4,30.17,WNW,292,0.0,1.0,88,0.00,CLR,CLR,0.00,WeatherDisplay:10.37,2013-03-08 09:31:00,
2013-03-08 04:41:00,44.8,41.7,30.17,WNW,292,0.0,0.0,89,0.00,CLR,CLR,0.00,WeatherDisplay:10.37,2013-03-08 09:41:00,
2013-03-08 04:46:00,45.0,42.5,30.17,WNW,297,1.0,1.0,91,0.00,CLR,CLR,0.00,WeatherDisplay:10.37,2013-03-08 09:46:00,
2013-03-08 04:51:00,45.3,43.1,30.17,NNW,329,1.0,2.0,92,0.00,CLR,CLR,0.00,WeatherDisplay:10.37,2013-03-08 09:51:00,
2013-03-08 04:56:00,45.3,42.8,30.17,NNW,339,1.0,2.0,91,0.00,CLR,CLR,0.00,WeatherDisplay:10.37,2013-03-08 09:56:00,
2013-03-08 05:06:00,45.4,42.9,30.18,NNW,330,2.0,3.0,91,0.00,CLR,CLR,0.00,WeatherDisplay:10.37,2013-03-08 10:06:00,
2013-03-08 05:16:00,45.7,42.9,30.18,NW,326,2.0,3.0,90,0.00,CLR,CLR,0.00,WeatherDisplay:10.37,2013-03-08 10:16:00,
2013-03-08 05:21:00,45.6,42.8,30.18,NW,323,1.0,2.0,90,0.00,CLR,CLR,0.00,WeatherDisplay:10.37,2013-03-08 10:21:00,
2013-03-08 05:31:00,45.3,42.8,30.18,NW,324,1.0,2.0,91,0.00,CLR,CLR,0.00,WeatherDisplay:10.37,2013-03-08 10:31:00,
2013-03-08 05:36:00,45.1,42.3,30.18,NNW,327,1.0,2.0,90,0.00,CLR,CLR,0.00,WeatherDisplay:10.37,2013-03-08 10:36:00,
2013-03-08 05:41:00,45.1,42.7,30.18,NW,323,1.0,2.0,91,0.00,CLR,CLR,0.00,WeatherDisplay:10.37,2013-03-08 10:41:00,
2013-03-08 05:46:00,45.3,42.8,30.19,NNW,327,2.0,3.0,91,0.00,CLR,CLR,0.00,WeatherDisplay:10.37,2013-03-08 10:46:00,
2013-03-08 05:51:00,45.5,43.0,30.18,NNW,328,2.0,3.0,91,0.00,CLR,CLR,0.00,WeatherDisplay:10.37,2013-03-08 10:51:00,
2013-03-08 06:01:00,45.5,42.8,30.18,NW,325,2.0,3.0,90,0.00,CLR,CLR,0.00,WeatherDisplay:10.37,2013-03-08 11:01:00,
2013-03-08 06:06:00,45.5,42.8,30.19,NW,314,2.0,3.0,90,0.00,CLR,CLR,0.00,WeatherDisplay:10.37,2013-03-08 11:06:00,
2013-03-08 06:16:00,45.5,42.7,30.19,NW,315,2.0,3.0,90,0.00,CLR,CLR,0.00,WeatherDisplay:10.37,2013-03-08 11:16:00,
2013-03-08 06:21:00,45.4,42.3,30.19,NW,317,2.0,3.0,89,0.00,CLR,CLR,0.00,WeatherDisplay:10.37,2013-03-08 11:21:00,
2013-03-08 06:26:00,45.3,42.6,30.19,NW,318,1.0,2.0,90,0.00,CLR,CLR,0.00,WeatherDisplay:10.37,2013-03-08 11:26:00,
2013-03-08 06:31:00,45.3,42.6,30.19,NW,316,2.0,3.0,90,0.00,CLR,CLR,0.00,WeatherDisplay:10.37,2013-03-08 11:31:00,
2013-03-08 06:41:00,45.2,42.4,30.19,NW,314,2.0,2.0,90,0.00,CLR,CLR,0.00,WeatherDisplay:10.37,2013-03-08 11:41:00,
2013-03-08 06:51:00,45.0,42.3,30.20,NW,318,2.0,3.0,90,0.00,CLR,CLR,0.00,WeatherDisplay:10.37,2013-03-08 11:51:00,
2013-03-08 06:56:00,45.3,42.3,30.20,NW,326,2.0,3.0,89,0.00,CLR,CLR,0.00,WeatherDisplay:10.37,2013-03-08 11:56:00,
2013-03-08 07:01:00,45.6,42.2,30.20,NW,326,2.0,3.0,88,0.00,CLR,CLR,0.00,WeatherDisplay:10.37,2013-03-08 12:01:00,
2013-03-08 07:06:00,46.0,42.3,30.20,NW,318,1.0,2.0,87,0.00,CLR,CLR,0.00,WeatherDisplay:10.37,2013-03-08 12:06:00,
2013-03-08 07:11:00,46.3,42.7,30.20,NW,317,1.0,2.0,87,0.00,CLR,CLR,0.00,WeatherDisplay:10.37,2013-03-08 12:11:00,
2013-03-08 07:16:00,46.5,42.5,30.20,NW,317,1.0,2.0,86,0.00,CLR,CLR,0.00,WeatherDisplay:10.37,2013-03-08 12:16:00,
2013-03-08 07:21:00,47.1,42.8,30.21,NW,315,1.0,2.0,85,0.00,CLR,CLR,0.00,WeatherDisplay:10.37,2013-03-08 12:21:00,
2013-03-08 07:26:00,47.5,42.9,30.21,NW,316,1.0,2.0,84,0.00,CLR,CLR,0.00,WeatherDisplay:10.37,2013-03-08 12:26:00,
2013-03-08 07:31:00,48.0,43.1,30.21,NW,317,1.0,2.0,83,0.00,CLR,CLR,0.00,WeatherDisplay:10.37,2013-03-08 12:31:00,
2013-03-08 07:36:00,48.4,43.2,30.21,NW,324,2.0,2.0,82,0.00,CLR,CLR,0.00,WeatherDisplay:10.37,2013-03-08 12:36:00,
2013-03-08 07:41:00,48.9,43.7,30.21,NNW,332,2.0,3.0,82,0.00,CLR,CLR,0.00,WeatherDisplay:10.37,2013-03-08 12:41:00,
2013-03-08 07:46:00,49.5,43.9,30.21,NNW,333,1.0,2.0,81,0.00,CLR,CLR,0.00,WeatherDisplay:10.37,2013-03-08 12:46:00,
2013-03-08 07:56:00,51.3,44.6,30.22,NW,319,1.0,2.0,78,0.00,CLR,CLR,0.00,WeatherDisplay:10.37,2013-03-08 12:56:00,
2013-03-08 08:01:00,51.7,44.8,30.22,NW,325,1.0,2.0,77,0.00,CLR,CLR,0.00,WeatherDisplay:10.37,2013-03-08 13:01:00,
2013-03-08 08:06:00,52.6,45.9,30.22,NNW,330,0.0,2.0,78,0.00,CLR,CLR,0.00,WeatherDisplay:10.37,2013-03-08 13:06:00,
2013-03-08 08:11:00,53.9,46.1,30.22,NNW,337,1.0,2.0,75,0.00,CLR,CLR,0.00,WeatherDisplay:10.37,2013-03-08 13:11:00,
2013-03-08 08:21:00,55.5,47.7,30.22,North,5,1.0,1.0,75,0.00,CLR,CLR,0.00,WeatherDisplay:10.37,2013-03-08 13:21:00,
2013-03-08 08:32:00,55.8,46.9,30.22,NNW,347,1.0,2.0,72,0.00,CLR,CLR,0.00,WeatherDisplay:10.37,2013-03-08 13:32:00,
2013-03-08 08:41:00,57.8,48.1,30.22,NNW,331,0.0,2.0,70,0.00,CLR,CLR,0.00,WeatherDisplay:10.37,2013-03-08 13:41:00,
2013-03-08 08:46:00,59.2,48.2,30.22,NW,311,1.0,2.0,67,0.00,CLR,CLR,0.00,WeatherDisplay:10.37,2013-03-08 13:46:00,
2013-03-08 08:52:00,59.7,47.5,30.22,WNW,295,1.0,2.0,64,0.00,CLR,CLR,0.00,WeatherDisplay:10.37,2013-03-08 13:52:00,
2013-03-08 09:01:00,60.2,48.0,30.22,NW,318,1.0,2.0,64,0.00,CLR,CLR,0.00,WeatherDisplay:10.37,2013-03-08 14:01:00,
2013-03-08 09:06:00,60.5,47.8,30.22,North,10,2.0,3.0,63,0.00,CLR,CLR,0.00,WeatherDisplay:10.37,2013-03-08 14:06:00,
2013-03-08 09:16:00,59.7,46.7,30.22,NNE,22,2.0,5.0,62,0.00,CLR,CLR,0.00,WeatherDisplay:10.37,2013-03-08 14:16:00,
2013-03-08 09:26:00,60.3,45.4,30.22,North,0,5.0,6.0,58,0.00,CLR,CLR,0.00,WeatherDisplay:10.37,2013-03-08 14:26:00,
2013-03-08 09:31:00,60.1,44.8,30.22,North,5,3.0,6.0,57,0.00,CLR,CLR,0.00,WeatherDisplay:10.37,2013-03-08 14:31:00,
2013-03-08 09:41:00,61.2,44.4,30.23,NW,326,1.0,5.0,54,0.00,CLR,CLR,0.00,WeatherDisplay:10.37,2013-03-08 14:41:00,
2013-03-08 09:51:00,61.9,43.5,30.23,North,355,1.0,6.0,51,0.00,CLR,CLR,0.00,WeatherDisplay:10.37,2013-03-08 14:51:00,
2013-03-08 10:01:00,63.0,40.7,30.22,North,358,3.0,5.0,44,0.00,CLR,CLR,0.00,WeatherDisplay:10.37,2013-03-08 15:01:00,
2013-03-08 10:06:00,62.2,40.6,30.22,North,8,3.0,7.0,45,0.00,CLR,CLR,0.00,WeatherDisplay:10.37,2013-03-08 15:06:00,
2013-03-08 10:16:00,62.6,39.2,30.22,North,9,5.0,7.0,42,0.00,CLR,CLR,0.00,WeatherDisplay:10.37,2013-03-08 15:16:00,
2013-03-08 10:21:00,62.2,37.6,30.22,North,352,5.0,9.0,40,0.00,CLR,CLR,0.00,WeatherDisplay:10.37,2013-03-08 15:21:00,
2013-03-08 10:31:00,63.7,39.5,30.22,NNW,345,5.0,6.0,41,0.00,CLR,CLR,0.00,WeatherDisplay:10.37,2013-03-08 15:31:00,
2013-03-08 10:41:00,64.3,39.4,30.22,NW,325,1.0,7.0,40,0.00,CLR,CLR,0.00,WeatherDisplay:10.37,2013-03-08 15:41:00,
2013-03-08 10:51:00,64.3,39.4,30.22,NNW,340,3.0,9.0,40,0.00,CLR,CLR,0.00,WeatherDisplay:10.37,2013-03-08 15:51:00,
2013-03-08 11:01:00,64.2,39.4,30.22,North,7,5.0,10.0,40,0.00,CLR,CLR,0.00,WeatherDisplay:10.37,2013-03-08 16:01:00,
2013-03-08 11:06:00,64.4,39.5,30.22,North,9,3.0,7.0,40,0.00,CLR,CLR,0.00,WeatherDisplay:10.37,2013-03-08 16:06:00,
2013-03-08 11:11:00,64.8,39.9,30.22,North,351,3.0,6.0,40,0.00,CLR,CLR,0.00,WeatherDisplay:10.37,2013-03-08 16:11:00,
2013-03-08 11:21:00,65.7,39.4,30.22,NNE,17,2.0,5.0,38,0.00,CLR,CLR,0.00,WeatherDisplay:10.37,2013-03-08 16:21:00,
2013-03-08 11:31:00,65.4,38.5,30.21,NNE,14,3.0,10.0,37,0.00,CLR,CLR,0.00,WeatherDisplay:10.37,2013-03-08 16:31:00,
2013-03-08 11:42:00,66.2,39.8,30.21,North,354,2.0,6.0,38,0.00,CLR,CLR,0.00,WeatherDisplay:10.37,2013-03-08 16:42:00,
2013-03-08 11:52:00,67.3,39.4,30.21,NNW,343,3.0,6.0,36,0.00,CLR,CLR,0.00,WeatherDisplay:10.37,2013-03-08 16:52:00,
2013-03-08 12:01:00,66.6,38.1,30.21,North,4,6.0,8.0,35,0.00,CLR,CLR,0.00,WeatherDisplay:10.37,2013-03-08 17:01:00,
2013-03-08 12:11:00,66.7,37.4,30.21,NNE,15,6.0,7.0,34,0.00,CLR,CLR,0.00,WeatherDisplay:10.37,2013-03-08 17:11:00,
2013-03-08 12:16:00,67.3,37.9,30.21,North,7,2.0,7.0,34,0.00,CLR,CLR,0.00,WeatherDisplay:10.37,2013-03-08 17:16:00,
2013-03-08 12:26:00,67.6,38.2,30.20,NNE,25,6.0,7.0,34,0.00,CLR,CLR,0.00,WeatherDisplay:10.37,2013-03-08 17:26:00,
2013-03-08 12:31:00,67.8,38.4,30.20,NNE,23,5.0,9.0,34,0.00,CLR,CLR,0.00,WeatherDisplay:10.37,2013-03-08 17:31:00,
2013-03-08 12:36:00,68.1,37.9,30.19,NNE,31,2.0,6.0,33,0.00,CLR,CLR,0.00,WeatherDisplay:10.37,2013-03-08 17:36:00,
2013-03-08 12:42:00,69.0,37.9,30.19,North,5,2.0,5.0,32,0.00,CLR,CLR,0.00,WeatherDisplay:10.37,2013-03-08 17:42:00,
2013-03-08 12:51:00,68.7,39.1,30.19,North,5,3.0,8.0,34,0.00,CLR,CLR,0.00,WeatherDisplay:10.37,2013-03-08 17:51:00,
2013-03-08 12:56:00,68.7,39.2,30.19,NNE,14,3.0,6.0,34,0.00,CLR,CLR,0.00,WeatherDisplay:10.37,2013-03-08 17:56:00,
2013-03-08 13:06:00,69.6,40.0,30.18,NNW,346,3.0,7.0,34,0.00,CLR,CLR,0.00,WeatherDisplay:10.37,2013-03-08 18:06:00,
2013-03-08 13:11:00,69.4,39.0,30.18,North,7,5.0,9.0,33,0.00,CLR,CLR,0.00,WeatherDisplay:10.37,2013-03-08 18:11:00,
2013-03-08 13:21:00,69.0,38.6,30.17,NNE,20,7.0,8.0,33,0.00,CLR,CLR,0.00,WeatherDisplay:10.37,2013-03-08 18:21:00,
2013-03-08 13:31:00,69.6,38.4,30.16,NNE,26,5.0,7.0,32,0.00,CLR,CLR,0.00,WeatherDisplay:10.37,2013-03-08 18:31:00,
2013-03-08 13:36:00,69.8,38.6,30.16,NNE,20,5.0,9.0,32,0.00,CLR,CLR,0.00,WeatherDisplay:10.37,2013-03-08 18:36:00,
2013-03-08 13:41:00,70.0,38.8,30.16,NNE,31,6.0,8.0,32,0.00,CLR,CLR,0.00,WeatherDisplay:10.37,2013-03-08 18:41:00,
2013-03-08 13:46:00,69.8,39.4,30.16,NE,37,2.0,7.0,33,0.00,CLR,CLR,0.00,WeatherDisplay:10.37,2013-03-08 18:46:00,
2013-03-08 13:56:00,70.7,38.5,30.16,North,349,3.0,7.0,31,0.00,CLR,CLR,0.00,WeatherDisplay:10.37,2013-03-08 18:56:00,
2013-03-08 14:01:00,71.1,38.0,30.16,North,355,3.0,9.0,30,0.00,CLR,CLR,0.00,WeatherDisplay:10.37,2013-03-08 19:01:00,
2013-03-08 14:11:00,70.5,38.4,30.15,NNE,20,6.0,13.0,31,0.00,CLR,CLR,0.00,WeatherDisplay:10.37,2013-03-08 19:11:00,
2013-03-08 14:16:00,71.4,39.2,30.15,NNE,19,1.0,6.0,31,0.00,CLR,CLR,0.00,WeatherDisplay:10.37,2013-03-08 19:16:00,
2013-03-08 14:22:00,71.7,38.6,30.14,North,350,6.0,10.0,30,0.00,CLR,CLR,0.00,WeatherDisplay:10.37,2013-03-08 19:22:00,
2013-03-08 14:32:00,72.3,39.1,30.14,NNW,327,3.0,7.0,30,0.00,CLR,CLR,0.00,WeatherDisplay:10.37,2013-03-08 19:32:00,
2013-03-08 14:42:00,71.9,37.9,30.13,North,358,3.0,10.0,29,0.00,CLR,CLR,0.00,WeatherDisplay:10.37,2013-03-08 19:42:00,
2013-03-08 14:52:00,72.4,38.3,30.13,North,4,8.0,10.0,29,0.00,CLR,CLR,0.00,WeatherDisplay:10.37,2013-03-08 19:52:00,
2013-03-08 15:02:00,72.9,38.8,30.13,NNE,18,2.0,7.0,29,0.00,CLR,CLR,0.00,WeatherDisplay:10.37,2013-03-08 20:02:00,
2013-03-08 15:11:00,73.4,37.3,30.13,NE,54,6.0,9.0,27,0.00,CLR,CLR,0.00,WeatherDisplay:10.37,2013-03-08 20:11:00,
2013-03-08 15:21:00,73.6,38.5,30.13,NNE,33,5.0,10.0,28,0.00,CLR,CLR,0.00,WeatherDisplay:10.37,2013-03-08 20:21:00,
2013-03-08 15:31:00,73.0,38.0,30.13,North,4,3.0,9.0,28,0.00,CLR,CLR,0.00,WeatherDisplay:10.37,2013-03-08 20:31:00,
2013-03-08 15:41:00,74.0,36.9,30.13,NNE,21,5.0,10.0,26,0.00,CLR,CLR,0.00,WeatherDisplay:10.37,2013-03-08 20:41:00,
2013-03-08 15:51:00,73.9,36.8,30.13,NE,43,2.0,7.0,26,0.00,CLR,CLR,0.00,WeatherDisplay:10.37,2013-03-08 20:51:00,
2013-03-08 15:56:00,74.3,37.2,30.13,North,10,5.0,7.0,26,0.00,CLR,CLR,0.00,WeatherDisplay:10.37,2013-03-08 20:56:00,
2013-03-08 16:01:00,73.7,36.7,30.13,North,6,5.0,10.0,26,0.00,CLR,CLR,0.00,WeatherDisplay:10.37,2013-03-08 21:01:00,
2013-03-08 16:11:00,73.7,33.5,30.13,North,356,6.0,8.0,23,0.00,FEW,FEW,0.00,WeatherDisplay:10.37,2013-03-08 21:11:00,
2013-03-08 16:16:00,73.9,33.8,30.12,North,350,3.0,8.0,23,0.00,FEW,FEW,0.00,WeatherDisplay:10.37,2013-03-08 21:16:00,
2013-03-08 16:22:00,74.4,29.4,30.12,North,357,3.0,7.0,19,0.00,FEW,FEW,0.00,WeatherDisplay:10.37,2013-03-08 21:22:00,
2013-03-08 16:32:00,74.1,29.2,30.12,North,349,7.0,12.0,19,0.00,FEW,FEW,0.00,WeatherDisplay:10.37,2013-03-08 21:32:00,
2013-03-08 16:46:00,74.2,32.9,30.12,North,349,3.0,6.0,22,0.00,FEW,FEW,0.00,WeatherDisplay:10.37,2013-03-08 21:46:00,
2013-03-08 16:51:00,74.1,32.8,30.12,NNW,341,5.0,6.0,22,0.00,FEW,FEW,0.00,WeatherDisplay:10.37,2013-03-08 21:51:00,
2013-03-08 16:56:00,73.9,34.8,30.12,North,11,5.0,8.0,24,0.00,FEW,FEW,0.00,WeatherDisplay:10.37,2013-03-08 21:56:00,
2013-03-08 17:01:00,73.4,35.4,30.12,NNE,27,8.0,9.0,25,0.00,FEW,FEW,0.00,WeatherDisplay:10.37,2013-03-08 22:01:00,
2013-03-08 17:07:00,72.7,34.8,30.12,NNE,21,3.0,12.0,25,0.00,FEW,FEW,0.00,WeatherDisplay:10.37,2013-03-08 22:07:00,
2013-03-08 17:16:00,73.0,36.1,30.13,NNE,28,3.0,5.0,26,0.00,FEW,FEW,0.00,WeatherDisplay:10.37,2013-03-08 22:16:00,
2013-03-08 17:21:00,72.6,45.5,30.13,NE,48,6.0,10.0,38,0.00,FEW,FEW,0.00,WeatherDisplay:10.37,2013-03-08 22:21:00,
2013-03-08 17:26:00,71.4,47.1,30.13,ENE,70,9.0,10.0,42,0.00,FEW,FEW,0.00,WeatherDisplay:10.37,2013-03-08 22:26:00,
2013-03-08 17:31:00,70.9,47.3,30.13,East,90,3.0,9.0,43,0.00,FEW,FEW,0.00,WeatherDisplay:10.37,2013-03-08 22:31:00,
2013-03-08 17:36:00,70.4,47.5,30.13,East,90,9.0,12.0,44,0.00,FEW,FEW,0.00,WeatherDisplay:10.37,2013-03-08 22:36:00,
2013-03-08 17:41:00,69.4,47.2,30.13,ENE,69,9.0,12.0,45,0.00,FEW,FEW,0.00,WeatherDisplay:10.37,2013-03-08 22:41:00,
2013-03-08 17:46:00,68.9,47.3,30.14,East,81,7.0,10.0,46,0.00,FEW,FEW,0.00,WeatherDisplay:10.37,2013-03-08 22:46:00,
2013-03-08 17:51:00,68.7,47.1,30.14,East,80,5.0,7.0,46,0.00,FEW,FEW,0.00,WeatherDisplay:10.37,2013-03-08 22:51:00,
2013-03-08 17:56:00,68.7,46.5,30.14,ENE,67,3.0,7.0,45,0.00,FEW,FEW,0.00,WeatherDisplay:10.37,2013-03-08 22:56:00,
2013-03-08 18:01:00,68.0,45.9,30.14,ENE,75,5.0,7.0,45,0.00,FEW,FEW,0.00,WeatherDisplay:10.37,2013-03-08 23:01:00,
2013-03-08 18:06:00,67.2,45.7,30.14,East,84,5.0,9.0,46,0.00,SCT,SCT,0.00,WeatherDisplay:10.37,2013-03-08 23:06:00,
2013-03-08 18:12:00,66.6,45.7,30.15,East,84,6.0,9.0,47,0.00,SCT,SCT,0.00,WeatherDisplay:10.37,2013-03-08 23:12:00,
2013-03-08 18:21:00,65.5,45.8,30.15,ENE,76,3.0,8.0,49,0.00,SCT,SCT,0.00,WeatherDisplay:10.37,2013-03-08 23:21:00,
2013-03-08 18:31:00,64.6,46.1,30.15,East,91,5.0,9.0,51,0.00,SCT,SCT,0.00,WeatherDisplay:10.37,2013-03-08 23:31:00,
2013-03-08 18:42:00,63.9,45.9,30.16,ENE,72,3.0,6.0,52,0.00,SCT,SCT,0.00,WeatherDisplay:10.37,2013-03-08 23:42:00,
2013-03-08 18:51:00,63.3,46.4,30.16,ENE,65,7.0,8.0,54,0.00,SCT,SCT,0.00,WeatherDisplay:10.37,2013-03-08 23:51:00,
2013-03-08 19:01:00,62.6,46.2,30.17,ENE,65,3.0,6.0,55,0.00,SCT,SCT,0.00,WeatherDisplay:10.37,2013-03-09 00:01:00,
2013-03-08 19:11:00,62.0,46.6,30.18,ENE,67,5.0,8.0,57,0.00,SCT,SCT,0.00,WeatherDisplay:10.37,2013-03-09 00:11:00,
2013-03-08 19:16:00,61.9,46.9,30.18,ENE,64,6.0,9.0,58,0.00,SCT,SCT,0.00,WeatherDisplay:10.37,2013-03-09 00:16:00,
2013-03-08 19:21:00,61.5,46.6,30.19,ENE,62,7.0,8.0,58,0.00,SCT,SCT,0.00,WeatherDisplay:10.37,2013-03-09 00:21:00,
2013-03-08 19:31:00,61.2,46.7,30.18,ENE,59,3.0,7.0,59,0.00,SCT,SCT,0.00,WeatherDisplay:10.37,2013-03-09 00:31:00,
2013-03-08 19:41:00,60.6,46.7,30.19,ENE,76,3.0,8.0,60,0.00,SCT,SCT,0.00,WeatherDisplay:10.37,2013-03-09 00:41:00,
2013-03-08 19:51:00,60.1,47.1,30.18,ENE,65,5.0,6.0,62,0.00,SCT,SCT,0.00,WeatherDisplay:10.37,2013-03-09 00:51:00,
2013-03-08 20:01:00,59.9,46.8,30.18,NE,55,3.0,6.0,62,0.00,SCT,SCT,0.00,WeatherDisplay:10.37,2013-03-09 01:01:00,
2013-03-08 20:06:00,59.7,46.6,30.18,ENE,59,3.0,7.0,62,0.00,FEW,FEW,0.00,WeatherDisplay:10.37,2013-03-09 01:06:00,
2013-03-08 20:11:00,59.4,46.3,30.18,ENE,70,2.0,5.0,62,0.00,FEW,FEW,0.00,WeatherDisplay:10.37,2013-03-09 01:11:00,
2013-03-08 20:16:00,59.2,46.6,30.19,ENE,69,3.0,5.0,63,0.00,FEW,FEW,0.00,WeatherDisplay:10.37,2013-03-09 01:16:00,
2013-03-08 20:22:00,59.0,46.4,30.19,ENE,59,3.0,5.0,63,0.00,FEW,FEW,0.00,WeatherDisplay:10.37,2013-03-09 01:22:00,
2013-03-08 20:32:00,58.6,46.1,30.19,NE,52,3.0,5.0,63,0.00,FEW,FEW,0.00,WeatherDisplay:10.37,2013-03-09 01:32:00,
2013-03-08 20:41:00,58.5,46.3,30.19,NE,46,2.0,5.0,64,0.00,FEW,FEW,0.00,WeatherDisplay:10.37,2013-03-09 01:41:00,
2013-03-08 20:46:00,58.3,46.2,30.19,NE,52,3.0,5.0,64,0.00,FEW,FEW,0.00,WeatherDisplay:10.37,2013-03-09 01:46:00,
2013-03-08 20:51:00,58.3,46.2,30.19,NE,42,3.0,5.0,64,0.00,FEW,FEW,0.00,WeatherDisplay:10.37,2013-03-09 01:51:00,
2013-03-08 21:01:00,57.9,46.2,30.19,NE,41,3.0,5.0,65,0.00,FEW,FEW,0.00,WeatherDisplay:10.37,2013-03-09 02:01:00,
2013-03-08 21:07:00,57.7,46.0,30.19,NE,51,1.0,3.0,65,0.00,FEW,FEW,0.00,WeatherDisplay:10.37,2013-03-09 02:07:00,
2013-03-08 21:12:00,57.5,45.8,30.19,NE,54,1.0,3.0,65,0.00,FEW,FEW,0.00,WeatherDisplay:10.37,2013-03-09 02:12:00,
2013-03-08 21:21:00,57.4,46.1,30.20,NNE,33,3.0,5.0,66,0.00,FEW,FEW,0.00,WeatherDisplay:10.37,2013-03-09 02:21:00,
2013-03-08 21:26:00,57.4,46.1,30.20,NE,38,2.0,3.0,66,0.00,FEW,FEW,0.00,WeatherDisplay:10.37,2013-03-09 02:26:00,
2013-03-08 21:32:00,57.2,46.3,30.20,NE,43,2.0,2.0,67,0.00,FEW,FEW,0.00,WeatherDisplay:10.37,2013-03-09 02:32:00,
2013-03-08 21:41:00,57.0,46.1,30.20,NNE,32,2.0,3.0,67,0.00,FEW,FEW,0.00,WeatherDisplay:10.37,2013-03-09 02:41:00,
2013-03-08 21:51:00,56.7,46.6,30.21,NE,35,2.0,3.0,69,0.00,FEW,FEW,0.00,WeatherDisplay:10.37,2013-03-09 02:51:00,
2013-03-08 21:56:00,56.5,46.4,30.21,NE,39,2.0,3.0,69,0.00,FEW,FEW,0.00,WeatherDisplay:10.37,2013-03-09 02:56:00,
2013-03-08 22:01:00,56.5,46.8,30.20,NE,42,2.0,4.0,70,0.00,FEW,FEW,0.00,WeatherDisplay:10.37,2013-03-09 03:01:00,
2013-03-08 22:06:00,56.5,46.4,30.20,NE,41,2.0,5.0,69,0.00,FEW,FEW,0.00,WeatherDisplay:10.37,2013-03-09 03:06:00,
2013-03-08 22:11:00,56.5,46.4,30.20,NE,43,2.0,5.0,69,0.00,FEW,FEW,0.00,WeatherDisplay:10.37,2013-03-09 03:11:00,
2013-03-08 22:17:00,56.3,46.3,30.20,NE,39,2.0,3.0,69,0.00,FEW,FEW,0.00,WeatherDisplay:10.37,2013-03-09 03:17:00,
2013-03-08 22:22:00,56.1,46.1,30.20,NE,38,1.0,2.0,69,0.00,FEW,FEW,0.00,WeatherDisplay:10.37,2013-03-09 03:22:00,
2013-03-08 22:31:00,55.8,45.7,30.20,NE,35,0.0,2.0,69,0.00,FEW,FEW,0.00,WeatherDisplay:10.37,2013-03-09 03:31:00,
2013-03-08 22:36:00,55.6,46.7,30.20,NNE,30,1.0,2.0,72,0.00,FEW,FEW,0.00,WeatherDisplay:10.37,2013-03-09 03:36:00,
2013-03-08 22:41:00,55.6,46.7,30.20,NNW,339,2.0,2.0,72,0.00,FEW,FEW,0.00,WeatherDisplay:10.37,2013-03-09 03:41:00,
2013-03-08 22:47:00,55.2,46.3,30.20,NW,310,1.0,2.0,72,0.00,FEW,FEW,0.00,WeatherDisplay:10.37,2013-03-09 03:47:00,
2013-03-08 22:56:00,55.3,46.8,30.20,NW,315,0.0,2.0,73,0.00,FEW,FEW,0.00,WeatherDisplay:10.37,2013-03-09 03:56:00,
2013-03-08 23:01:00,55.2,46.7,30.20,NW,312,0.0,2.0,73,0.00,FEW,FEW,0.00,WeatherDisplay:10.37,2013-03-09 04:01:00,
2013-03-08 23:06:00,55.0,46.5,30.20,NW,304,2.0,3.0,73,0.00,FEW,FEW,0.00,WeatherDisplay:10.37,2013-03-09 04:06:00,
2013-03-08 23:11:00,54.9,46.7,30.21,NW,319,1.0,2.0,74,0.00,FEW,FEW,0.00,WeatherDisplay:10.37,2013-03-09 04:11:00,
2013-03-08 23:21:00,54.4,46.7,30.21,NNW,328,1.0,1.0,75,0.00,FEW,FEW,0.00,WeatherDisplay:10.37,2013-03-09 04:21:00,
2013-03-08 23:31:00,54.5,47.1,30.21,NW,324,1.0,2.0,76,0.00,FEW,FEW,0.00,WeatherDisplay:10.37,2013-03-09 04:31:00,
2013-03-08 23:37:00,54.4,46.7,30.21,NW,319,1.0,2.0,75,0.00,FEW,FEW,0.00,WeatherDisplay:10.37,2013-03-09 04:37:00,
2013-03-08 23:46:00,54.3,46.6,30.21,North,351,1.0,2.0,75,0.00,FEW,FEW,0.00,WeatherDisplay:10.37,2013-03-09 04:46:00,
2013-03-08 23:51:00,54.3,46.9,30.21,North,10,1.0,2.0,76,0.00,FEW,FEW,0.00,WeatherDisplay:10.37,2013-03-09 04:51:00,